Time;durP1;ratioP1;P1;durP2;ratioP2;P2;SDS_P1;SDS_P2;PMS_P1;PMS_P2;Temp;Humidity;BMP_temperature;BMP_pressure;BME280_temperature;BME280_humidity;BME280_pressure;Samples;Min_cycle;Max_cycle;Signal;HPM_P1;HPM_P2
2022/04/24 00:01:18;;;;;;;9.75;6.72;;;;;;;8.40;79.18;99022.91;5083706;28;20027;-87
2022/04/24 00:03:46;;;;;;;9.15;6.57;;;;;;;8.33;80.43;99006.31;5103048;28;20088;-88
2022/04/24 00:06:11;;;;;;;8.93;6.40;;;;;;;8.30;79.57;99017.09;5102219;28;20102;-87
2022/04/24 00:08:36;;;;;;;9.25;6.40;;;;;;;8.28;80.33;99006.50;5101404;28;20032;-87
2022/04/24 00:11:02;;;;;;;10.30;6.53;;;;;;;8.23;81.02;99003.19;5100362;28;20413;-87
2022/04/24 00:13:31;;;;;;;10.13;6.03;;;;;;;8.20;81.11;99005.97;5102001;28;20035;-87
2022/04/24 00:15:57;;;;;;;9.05;6.97;;;;;;;8.19;81.59;99001.59;5083518;28;20054;-86
2022/04/24 00:18:23;;;;;;;10.07;6.45;;;;;;;8.12;81.98;98999.16;5083606;28;20477;-86
2022/04/24 00:20:51;;;;;;;11.57;6.63;;;;;;;8.11;81.81;99008.09;5101937;28;20073;-86
2022/04/24 00:23:17;;;;;;;8.05;5.82;;;;;;;8.08;82.35;99002.00;5097291;22;20057;-78
2022/04/24 00:25:42;;;;;;;9.57;6.10;;;;;;;8.09;81.31;98996.63;5098385;28;20039;-78
2022/04/24 00:28:07;;;;;;;8.85;5.65;;;;;;;8.06;82.07;99004.75;5099646;28;20027;-79
2022/04/24 00:30:33;;;;;;;8.70;6.63;;;;;;;8.00;82.78;98995.22;5100578;28;20059;-78
2022/04/24 00:32:58;;;;;;;8.52;6.00;;;;;;;7.98;82.77;98996.22;5099928;28;20183;-79
2022/04/24 00:35:23;;;;;;;7.82;5.80;;;;;;;7.97;82.92;98997.13;5099995;28;20099;-79
2022/04/24 00:37:49;;;;;;;8.93;6.22;;;;;;;7.92;83.11;98986.69;5100446;28;20469;-79
2022/04/24 00:40:14;;;;;;;8.55;6.05;;;;;;;7.95;82.89;98983.91;5100772;28;20024;-79
2022/04/24 00:42:39;;;;;;;9.82;6.20;;;;;;;7.92;82.88;98982.25;5081390;28;20051;-78
2022/04/24 00:45:05;;;;;;;8.40;6.03;;;;;;;7.88;83.09;98977.13;5099959;28;20534;-78
2022/04/24 00:47:31;;;;;;;8.40;5.82;;;;;;;7.87;83.03;98984.22;5095947;28;20020;-77
2022/04/24 00:49:56;;;;;;;8.18;5.78;;;;;;;7.82;83.89;98980.88;5097406;28;20035;-77
2022/04/24 00:52:22;;;;;;;7.47;5.35;;;;;;;7.78;83.73;98973.97;5097489;28;20039;-77
2022/04/24 00:54:47;;;;;;;7.53;5.70;;;;;;;7.75;83.75;98971.41;5079568;28;20016;-77
2022/04/24 00:57:13;;;;;;;8.57;5.95;;;;;;;7.69;83.77;98965.41;5097979;28;20368;-78
2022/04/24 00:59:40;;;;;;;9.02;5.95;;;;;;;7.67;84.31;98971.72;5079460;28;20028;-78
2022/04/24 01:02:06;;;;;;;8.43;4.97;;;;;;;7.66;84.07;98970.84;5097918;28;20020;-77
2022/04/24 01:04:34;;;;;;;7.15;5.35;;;;;;;7.70;83.91;98960.97;5079920;28;20416;-78
2022/04/24 01:06:59;;;;;;;9.45;5.75;;;;;;;7.62;84.57;98966.59;5079945;28;20470;-78
2022/04/24 01:09:26;;;;;;;7.03;5.22;;;;;;;7.63;84.44;98970.97;5079743;28;20035;-78
2022/04/24 01:11:55;;;;;;;8.15;4.97;;;;;;;7.64;83.79;98962.06;5080215;28;20058;-78
2022/04/24 01:14:28;;;;;;;6.57;5.15;;;;;;;7.64;83.95;98972.69;5098405;28;20020;-79
2022/04/24 01:16:53;;;;;;;10.30;6.15;;;;;;;7.47;85.08;98974.22;5098521;28;20028;-78
2022/04/24 01:19:20;;;;;;;8.77;5.30;;;;;;;7.48;85.53;98967.97;5098233;28;20028;-77
2022/04/24 01:21:48;;;;;;;7.72;5.10;;;;;;;7.40;85.60;98974.50;5098710;28;20496;-77
2022/04/24 01:24:17;;;;;;;7.82;5.90;;;;;;;7.40;86.01;98972.72;5096921;28;20040;-78
2022/04/24 01:26:42;;;;;;;7.07;5.25;;;;;;;7.36;86.18;98974.63;5077637;28;20028;-78
2022/04/24 01:29:09;;;;;;;8.35;5.28;;;;;;;7.29;86.26;98982.91;5096290;28;20028;-80
2022/04/24 01:31:35;;;;;;;9.90;5.82;;;;;;;7.26;86.83;98981.22;5078560;28;20183;-77
2022/04/24 01:34:00;;;;;;;8.50;5.93;;;;;;;7.21;86.49;98975.22;5096605;28;20110;-77
2022/04/24 01:36:26;;;;;;;7.82;5.30;;;;;;;7.20;87.19;98974.34;5096686;28;20107;-78
2022/04/24 01:38:51;;;;;;;6.88;5.22;;;;;;;7.18;88.25;98970.88;5097692;28;20031;-78
2022/04/24 01:41:17;;;;;;;8.88;5.70;;;;;;;7.10;87.54;98975.59;5080251;28;20032;-77
2022/04/24 01:43:42;;;;;;;7.65;5.47;;;;;;;6.98;89.21;98964.53;5097088;28;20020;-77
2022/04/24 01:46:09;;;;;;;7.90;5.13;;;;;;;6.98;88.15;98964.53;5079435;28;20027;-79
2022/04/24 01:48:35;;;;;;;9.00;5.40;;;;;;;6.91;89.23;98968.31;5080989;28;20120;-79
2022/04/24 01:51:06;;;;;;;8.88;5.63;;;;;;;6.92;88.60;98964.75;5098874;28;20024;-79
2022/04/24 01:53:32;;;;;;;7.72;5.30;;;;;;;6.83;89.95;98973.88;5080756;28;20016;-79
2022/04/24 01:55:58;;;;;;;10.32;5.85;;;;;;;6.81;89.94;98973.97;5080640;28;20446;-79
2022/04/24 01:58:25;;;;;;;6.93;5.32;;;;;;;6.79;89.30;98978.47;5099281;28;20091;-78
2022/04/24 02:00:51;;;;;;;9.13;5.10;;;;;;;6.72;90.35;98979.59;5080677;28;20097;-77
2022/04/24 02:03:17;;;;;;;7.13;5.00;;;;;;;6.70;90.54;98984.94;5095395;28;20034;-77
2022/04/24 02:05:42;;;;;;;10.32;5.28;;;;;;;6.68;90.79;98983.25;5077661;28;20115;-77
2022/04/24 02:08:08;;;;;;;7.13;5.13;;;;;;;6.52;90.92;98982.94;5095766;28;20461;-77
2022/04/24 02:10:33;;;;;;;7.55;5.00;;;;;;;6.53;91.07;98980.22;5095952;28;20024;-77
2022/04/24 02:12:58;;;;;;;6.68;4.97;;;;;;;6.54;90.90;98976.69;5096417;28;20020;-77
2022/04/24 02:15:24;;;;;;;7.65;5.03;;;;;;;6.50;90.73;98974.16;5078137;28;20502;-77
2022/04/24 02:17:50;;;;;;;7.47;5.00;;;;;;;6.55;90.77;98972.22;5096123;28;20027;-78
2022/04/24 02:20:15;;;;;;;6.55;5.00;;;;;;;6.50;90.92;98975.03;5098018;28;20028;-78
2022/04/24 02:22:40;;;;;;;6.90;4.95;;;;;;;6.48;90.87;98966.25;5083838;28;20020;-78
2022/04/24 02:25:06;;;;;;;6.63;4.70;;;;;;;6.55;89.88;98970.44;5102130;28;20031;-78
2022/04/24 02:27:32;;;;;;;7.18;4.88;;;;;;;6.50;90.79;98968.84;5084074;28;20016;-79
2022/04/24 02:29:57;;;;;;;7.68;4.75;;;;;;;6.42;91.14;98967.34;5101595;28;20028;-78
2022/04/24 02:32:23;;;;;;;7.40;4.85;;;;;;;6.42;90.32;98969.97;5084117;28;20024;-79
2022/04/24 02:34:48;;;;;;;7.10;4.50;;;;;;;6.39;90.47;98966.59;5083928;28;20399;-78
2022/04/24 02:37:13;;;;;;;8.23;4.60;;;;;;;6.37;90.78;98958.66;5083435;28;20028;-78
2022/04/24 02:39:38;;;;;;;7.10;4.97;;;;;;;6.35;90.84;98961.38;5099698;28;20028;-78
2022/04/24 02:42:04;;;;;;;6.95;4.80;;;;;;;6.35;90.23;98961.38;5079956;28;20039;-77
2022/04/24 02:44:30;;;;;;;7.43;5.00;;;;;;;6.31;91.01;98959.78;5099134;28;20024;-77
2022/04/24 02:46:55;;;;;;;8.07;4.70;;;;;;;6.27;91.43;98960.78;5080771;28;20027;-78
2022/04/24 02:49:20;;;;;;;7.20;5.00;;;;;;;6.21;91.16;98961.00;5098803;28;20024;-77
2022/04/24 02:51:45;;;;;;;6.30;4.78;;;;;;;6.21;91.36;98961.00;5099002;28;20046;-78
2022/04/24 02:54:11;;;;;;;8.93;4.65;;;;;;;6.18;92.43;98954.00;5081120;28;20485;-77
2022/04/24 02:56:36;;;;;;;6.85;5.00;;;;;;;6.14;91.85;98953.22;5099156;28;20024;-77
2022/04/24 02:59:02;;;;;;;8.32;4.80;;;;;;;6.17;91.04;98951.41;5100423;28;20024;-79
2022/04/24 03:01:28;;;;;;;8.07;4.72;;;;;;;6.12;91.80;98948.91;5101576;28;20031;-78
2022/04/24 03:03:53;;;;;;;7.38;4.45;;;;;;;6.10;92.11;98945.44;5100940;28;20051;-79
2022/04/24 03:06:19;;;;;;;7.22;5.10;;;;;;;6.10;91.73;98950.75;5081904;28;20437;-79
2022/04/24 03:08:46;;;;;;;7.93;4.68;;;;;;;6.03;92.20;98944.75;5082889;28;20460;-79
2022/04/24 03:11:12;;;;;;;7.53;4.93;;;;;;;6.01;91.75;98952.75;5082963;28;20024;-78
2022/04/24 03:13:37;;;;;;;8.77;5.20;;;;;;;5.99;92.14;98965.19;5100716;28;20027;-77
2022/04/24 03:16:03;;;;;;;5.75;4.18;;;;;;;5.96;92.00;98961.75;5101629;28;20031;-77
2022/04/24 03:18:28;;;;;;;8.95;5.15;;;;;;;5.91;92.22;98957.47;5098248;28;20019;-77
2022/04/24 03:20:54;;;;;;;7.65;4.60;;;;;;;5.89;92.56;98967.25;5079961;28;20122;-77
2022/04/24 03:23:19;;;;;;;7.63;4.40;;;;;;;5.84;93.09;98966.53;5080266;28;20032;-77
2022/04/24 03:25:45;;;;;;;8.18;4.93;;;;;;;5.87;92.60;98969.09;5098241;28;20074;-78
2022/04/24 03:28:10;;;;;;;8.23;5.10;;;;;;;5.81;93.01;98966.63;5080407;28;20020;-77
2022/04/24 03:30:36;;;;;;;7.63;4.82;;;;;;;5.78;93.18;98969.38;5080082;28;20111;-78
2022/04/24 03:33:01;;;;;;;10.27;4.95;;;;;;;5.69;93.35;98955.53;5079464;28;20455;-79
2022/04/24 03:35:27;;;;;;;6.82;4.75;;;;;;;5.74;93.56;98965.09;5099913;28;20031;-78
2022/04/24 03:37:52;;;;;;;8.65;5.03;;;;;;;5.70;93.81;98969.59;5100547;28;20024;-79
2022/04/24 03:40:19;;;;;;;7.82;5.03;;;;;;;5.68;93.98;98966.16;5082683;28;20100;-79
2022/04/24 03:42:46;;;;;;;11.40;5.13;;;;;;;5.64;94.04;98962.75;5065840;28;20039;-79
2022/04/24 03:45:12;;;;;;;7.28;5.00;;;;;;;5.50;95.40;98964.94;5082643;28;20015;-79
2022/04/24 03:47:38;;;;;;;9.38;5.22;;;;;;;5.47;96.25;98964.13;5082967;28;20059;-79
2022/04/24 03:50:05;;;;;;;7.43;4.65;;;;;;;5.36;95.89;98966.25;5100936;28;20038;-79
2022/04/24 03:52:30;;;;;;;7.88;5.07;;;;;;;5.41;96.83;98969.59;5100514;28;20028;-79
2022/04/24 03:54:56;;;;;;;7.95;5.50;;;;;;;5.45;96.42;98971.25;5081320;28;20032;-79
2022/04/24 03:57:21;;;;;;;7.05;4.68;;;;;;;5.32;97.00;98972.53;5096512;28;20028;-78
2022/04/24 03:59:47;;;;;;;7.93;4.80;;;;;;;5.33;96.72;98961.03;5078183;28;20088;-77
2022/04/24 04:02:12;;;;;;;7.32;4.63;;;;;;;5.37;96.21;98957.38;5097391;28;20016;-77
2022/04/24 04:04:38;;;;;;;7.45;4.95;;;;;;;5.38;96.50;98964.41;5097793;28;20024;-77
2022/04/24 04:07:04;;;;;;;8.02;5.50;;;;;;;5.37;96.17;98962.66;5097483;28;20023;-78
2022/04/24 04:09:30;;;;;;;8.82;5.13;;;;;;;5.31;96.66;98963.69;5098142;28;20111;-77
2022/04/24 04:11:55;;;;;;;8.30;5.28;;;;;;;5.24;96.75;98963.03;5099844;28;20121;-78
2022/04/24 04:14:24;;;;;;;8.13;5.47;;;;;;;5.24;96.82;98970.09;5100521;28;20043;-79
2022/04/24 04:16:50;;;;;;;6.80;5.00;;;;;;;5.29;96.88;98962.00;5100709;28;20032;-77
2022/04/24 04:19:15;;;;;;;6.97;5.05;;;;;;;5.27;97.46;98956.78;5082731;28;20077;-79
2022/04/24 04:21:42;;;;;;;8.27;4.93;;;;;;;5.22;97.45;98959.56;5100562;28;20497;-78
2022/04/24 04:24:09;;;;;;;7.30;4.95;;;;;;;5.29;96.99;98959.38;5082317;28;20106;-79
2022/04/24 04:26:35;;;;;;;7.00;5.20;;;;;;;5.28;97.01;98968.25;5099834;28;20050;-79
2022/04/24 04:29:03;;;;;;;8.80;5.13;;;;;;;5.24;97.75;98965.69;5081776;28;20024;-78
2022/04/24 04:31:29;;;;;;;9.50;5.25;;;;;;;5.23;97.09;98961.28;5099617;28;20024;-78
2022/04/24 04:33:54;;;;;;;12.05;5.45;;;;;;;5.21;97.32;98965.75;5097317;28;20112;-77
2022/04/24 04:36:20;;;;;;;8.65;5.13;;;;;;;5.24;97.95;98973.63;5096420;28;20479;-77
2022/04/24 04:38:45;;;;;;;7.82;5.20;;;;;;;5.16;97.83;98965.03;5097071;28;20073;-77
2022/04/24 04:41:11;;;;;;;9.25;5.80;;;;;;;5.16;98.39;98970.31;5097072;28;20416;-77
2022/04/24 04:43:37;;;;;;;8.85;5.50;;;;;;;5.18;97.75;98965.00;5078873;28;20019;-78
2022/04/24 04:46:02;;;;;;;8.82;5.15;;;;;;;5.17;98.61;98972.06;5078809;28;20031;-77
2022/04/24 04:48:28;;;;;;;7.45;5.07;;;;;;;5.21;97.81;98968.41;5099875;28;20024;-78
2022/04/24 04:50:54;;;;;;;11.65;5.55;;;;;;;5.23;98.06;98971.88;5084993;28;20389;-78
2022/04/24 04:53:19;;;;;;;9.95;5.40;;;;;;;5.23;97.79;98976.31;5083995;28;20024;-77
2022/04/24 04:55:45;;;;;;;9.50;5.53;;;;;;;5.27;97.87;98974.44;5101785;28;20035;-79
2022/04/24 04:58:10;;;;;;;8.38;4.82;;;;;;;5.25;98.01;98970.06;5083915;28;20030;-78
2022/04/24 05:00:36;;;;;;;7.53;5.07;;;;;;;5.30;97.44;98972.56;5083997;28;20023;-78
2022/04/24 05:03:01;;;;;;;7.30;4.88;;;;;;;5.36;96.88;98971.53;5083372;28;20028;-78
2022/04/24 05:05:27;;;;;;;8.02;5.07;;;;;;;5.37;96.48;98967.94;5084446;28;20028;-78
2022/04/24 05:07:52;;;;;;;7.15;5.18;;;;;;;5.33;98.00;98975.13;5101954;28;20073;-77
2022/04/24 05:10:18;;;;;;;9.57;4.95;;;;;;;5.34;97.27;98968.03;5101573;28;20077;-79
2022/04/24 05:12:43;;;;;;;7.72;5.30;;;;;;;5.33;98.03;98976.91;5094484;28;20073;-78
2022/04/24 05:15:13;;;;;;;10.52;5.13;;;;;;;5.36;97.55;98982.13;5093483;28;20401;-78
2022/04/24 05:17:40;;;;;;;9.82;5.38;;;;;;;5.40;97.06;98977.59;5076334;28;20024;-78
2022/04/24 05:20:07;;;;;;;7.70;4.97;;;;;;;5.41;97.53;98974.88;5094085;28;20020;-78
2022/04/24 05:22:33;;;;;;;8.55;4.90;;;;;;;5.46;97.69;98978.25;5094475;28;20031;-77
2022/04/24 05:24:59;;;;;;;9.13;4.90;;;;;;;5.47;97.38;98972.06;5096124;28;20107;-78
2022/04/24 05:27:26;;;;;;;9.85;5.22;;;;;;;5.54;96.36;98974.53;5078113;28;20059;-79
2022/04/24 05:29:51;;;;;;;7.20;5.10;;;;;;;5.56;96.73;98972.69;5079112;28;20081;-79
2022/04/24 05:32:16;;;;;;;7.25;4.50;;;;;;;5.59;96.21;98978.75;5096512;28;20016;-79
2022/04/24 05:34:42;;;;;;;6.93;4.78;;;;;;;5.62;96.47;98972.50;5096034;28;20020;-79
2022/04/24 05:37:07;;;;;;;9.02;4.90;;;;;;;5.71;96.49;98984.59;5077270;28;20024;-79
2022/04/24 05:39:33;;;;;;;8.57;5.00;;;;;;;5.70;96.58;98982.84;5097927;28;20052;-79
2022/04/24 05:41:58;;;;;;;6.82;5.05;;;;;;;5.75;95.88;98988.00;5081151;28;20032;-80
2022/04/24 05:44:24;;;;;;;10.82;5.25;;;;;;;5.74;95.58;98994.22;5080703;28;20027;-79
2022/04/24 05:46:49;;;;;;;7.55;5.00;;;;;;;5.79;95.93;98989.66;5099438;28;20035;-80
2022/04/24 05:49:15;;;;;;;7.93;5.43;;;;;;;5.81;95.23;98993.13;5096183;28;20158;-79
2022/04/24 05:51:40;;;;;;;8.05;5.30;;;;;;;5.85;95.55;98994.75;5094357;28;20016;-78
2022/04/24 05:54:05;;;;;;;8.07;5.05;;;;;;;5.87;95.64;98998.25;5094992;28;20024;-78
2022/04/24 05:56:30;;;;;;;7.95;4.50;;;;;;;5.95;95.19;98999.78;5098158;28;20069;-78
2022/04/24 05:58:56;;;;;;;6.82;5.00;;;;;;;5.97;95.24;98990.88;5080109;28;20052;-78
2022/04/24 06:01:21;;;;;;;7.65;4.90;;;;;;;6.01;94.93;98996.91;5098901;28;20488;-78
2022/04/24 06:03:47;;;;;;;8.07;5.13;;;;;;;6.08;95.02;98998.47;5099326;28;20461;-79
2022/04/24 06:06:13;;;;;;;7.03;4.75;;;;;;;6.13;95.16;99011.59;5080819;28;20087;-79
2022/04/24 06:08:38;;;;;;;6.97;5.03;;;;;;;6.17;94.86;99004.41;5099077;28;20051;-79
2022/04/24 06:11:03;;;;;;;7.63;4.93;;;;;;;6.21;93.77;99008.72;5081119;28;20024;-78
2022/04/24 06:13:29;;;;;;;7.60;5.22;;;;;;;6.22;92.91;99006.00;5081173;28;20020;-78
2022/04/24 06:15:57;;;;;;;8.38;5.07;;;;;;;6.26;93.96;99009.44;5099870;28;20091;-80
2022/04/24 06:18:27;;;;;;;9.00;5.32;;;;;;;6.32;94.13;99011.84;5101320;28;20016;-80
2022/04/24 06:20:52;;;;;;;7.70;4.63;;;;;;;6.36;93.59;99016.16;5100295;28;20073;-80
2022/04/24 06:23:18;;;;;;;8.40;5.30;;;;;;;6.46;93.37;99006.09;5105884;28;20072;-78
2022/04/24 06:25:43;;;;;;;8.45;4.68;;;;;;;6.46;92.42;99010.53;5091732;22;20498;-75
2022/04/24 06:28:08;;;;;;;6.95;4.93;;;;;;;6.55;92.32;98998.72;5076627;28;20020;-76
2022/04/24 06:30:38;;;;;;;6.88;4.90;;;;;;;6.62;92.70;99010.03;5076934;28;20032;-77
2022/04/24 06:33:06;;;;;;;7.78;4.63;;;;;;;6.71;92.12;99004.38;5076612;28;20063;-77
2022/04/24 06:35:32;;;;;;;6.97;4.90;;;;;;;6.83;92.77;99003.06;5058454;28;20024;-77
2022/04/24 06:37:57;;;;;;;8.15;4.82;;;;;;;6.84;91.42;99014.56;5076351;28;20024;-77
2022/04/24 06:40:24;;;;;;;7.55;4.80;;;;;;;6.85;91.17;99005.69;5076318;28;20027;-77
2022/04/24 06:42:57;;;;;;;7.68;4.88;;;;;;;6.91;90.60;99005.47;5058089;28;20047;-76
2022/04/24 06:45:29;;;;;;;7.82;4.80;;;;;;;6.99;91.24;99000.75;5075987;28;20485;-76
2022/04/24 06:47:57;;;;;;;6.65;4.90;;;;;;;7.05;90.30;99002.31;5076466;28;20107;-77
2022/04/24 06:50:23;;;;;;;6.93;4.65;;;;;;;7.12;89.40;99009.13;5076336;28;20021;-77
2022/04/24 06:53:06;;;;;;;8.55;4.82;;;;;;;7.22;89.37;99006.13;5076469;28;20031;-77
2022/04/24 06:55:36;;;;;;;7.75;4.90;;;;;;;7.26;89.78;98999.81;5076381;28;20067;-77
2022/04/24 06:58:04;;;;;;;9.27;4.95;;;;;;;7.35;89.43;98993.28;5076412;28;20024;-77
2022/04/24 07:00:31;;;;;;;7.50;4.85;;;;;;;7.33;88.50;99000.44;5077024;28;20055;-77
2022/04/24 07:02:56;;;;;;;9.45;4.40;;;;;;;7.39;87.86;99005.53;5076375;28;20021;-76
2022/04/24 07:05:24;;;;;;;6.47;4.80;;;;;;;7.48;87.65;98998.97;5075573;28;20100;-76
2022/04/24 07:07:49;;;;;;;8.27;4.72;;;;;;;7.65;87.92;99000.16;5075836;28;20505;-76
2022/04/24 07:10:15;;;;;;;6.63;4.60;;;;;;;7.81;86.47;99003.91;5075673;28;20039;-77
2022/04/24 07:12:51;;;;;;;8.25;4.93;;;;;;;7.92;85.30;99003.50;5075610;28;20028;-76
2022/04/24 07:15:18;;;;;;;6.10;4.20;;;;;;;7.93;85.24;99013.22;5075461;28;20497;-77
2022/04/24 07:17:44;;;;;;;6.53;4.80;;;;;;;7.99;86.45;98997.94;5075729;28;20366;-76
2022/04/24 07:20:11;;;;;;;8.43;4.50;;;;;;;8.09;85.62;99001.94;5075568;28;20027;-76
2022/04/24 07:22:54;;;;;;;7.13;4.28;;;;;;;8.06;84.03;99004.75;5076210;28;20050;-78
2022/04/24 07:25:25;;;;;;;7.95;4.75;;;;;;;8.04;85.16;99014.59;5075869;28;20512;-77
2022/04/24 07:27:52;;;;;;;10.18;4.82;;;;;;;8.08;85.23;99007.34;5076158;28;20077;-78
2022/04/24 07:30:19;;;;;;;9.07;4.43;;;;;;;8.05;84.63;99022.47;5059101;28;20504;-78
2022/04/24 07:32:46;;;;;;;7.85;4.45;;;;;;;8.09;84.65;99014.41;5060166;28;20062;-80
2022/04/24 07:35:18;;;;;;;7.40;4.55;;;;;;;8.04;83.44;99018.09;5076492;28;20021;-77
2022/04/24 07:37:44;;;;;;;7.60;4.28;;;;;;;8.08;83.02;99023.28;5057324;28;20477;-76
2022/04/24 07:40:12;;;;;;;9.50;4.30;;;;;;;8.08;83.80;99024.16;5075330;28;20033;-77
2022/04/24 07:42:55;;;;;;;8.75;4.63;;;;;;;8.19;84.34;99014.88;5076098;28;20024;-78
2022/04/24 07:45:22;;;;;;;7.50;4.63;;;;;;;8.33;84.86;99014.31;5076584;28;20103;-80
2022/04/24 07:47:49;;;;;;;8.73;4.75;;;;;;;8.38;83.12;99010.53;5075558;28;20306;-78
2022/04/24 07:50:15;;;;;;;7.13;4.30;;;;;;;8.50;82.67;99016.28;5075575;28;20024;-78
2022/04/24 07:52:41;;;;;;;7.30;4.47;;;;;;;8.42;82.27;99011.28;5075429;28;20400;-79
2022/04/24 07:55:07;;;;;;;8.00;4.85;;;;;;;8.42;82.10;99013.06;5075286;28;20054;-77
2022/04/24 07:57:32;;;;;;;7.50;4.10;;;;;;;8.42;81.45;99008.63;5076369;28;20020;-78
2022/04/24 07:59:58;;;;;;;8.52;4.25;;;;;;;8.37;82.29;99006.16;5076642;28;20031;-78
2022/04/24 08:02:23;;;;;;;7.88;4.55;;;;;;;8.59;82.58;99007.06;5076584;28;20097;-78
2022/04/24 08:04:48;;;;;;;9.57;4.40;;;;;;;8.69;83.60;99010.19;5057833;28;20016;-78
2022/04/24 08:07:15;;;;;;;6.40;4.55;;;;;;;8.79;83.06;99008.84;5057944;28;20028;-78
2022/04/24 08:09:41;;;;;;;7.75;4.15;;;;;;;8.80;81.43;99007.94;5076330;28;20036;-78
2022/04/24 08:12:07;;;;;;;7.88;4.25;;;;;;;8.48;82.30;99007.47;5076193;28;20017;-78
2022/04/24 08:14:33;;;;;;;7.18;4.53;;;;;;;8.47;81.02;99014.63;5075600;28;20020;-78
2022/04/24 08:16:58;;;;;;;7.65;4.28;;;;;;;8.62;82.49;99012.25;5076150;28;20016;-78
2022/04/24 08:19:23;;;;;;;6.90;4.68;;;;;;;8.86;81.93;99013.94;5075906;28;20386;-78
2022/04/24 08:21:48;;;;;;;8.43;4.20;;;;;;;8.86;80.06;99008.59;5076494;28;20080;-78
2022/04/24 08:24:14;;;;;;;6.80;4.40;;;;;;;8.85;81.42;99012.19;5075933;28;20029;-78
2022/04/24 08:26:39;;;;;;;6.68;4.35;;;;;;;8.91;83.91;99009.28;5074847;28;20058;-78
2022/04/24 08:29:04;;;;;;;7.72;4.38;;;;;;;9.14;80.42;99012.72;5074895;28;20078;-78
2022/04/24 08:31:30;;;;;;;8.10;4.50;;;;;;;9.38;78.34;99004.56;5074701;28;20039;-77
2022/04/24 08:33:57;;;;;;;7.82;4.50;;;;;;;9.27;79.22;99007.69;5074671;28;20501;-78
2022/04/24 08:36:24;;;;;;;6.95;4.43;;;;;;;9.44;78.14;99009.59;5074649;28;20378;-78
2022/04/24 08:38:49;;;;;;;7.95;4.78;;;;;;;9.74;77.06;98999.38;5056736;28;20074;-78
2022/04/24 08:41:19;;;;;;;6.13;4.07;;;;;;;9.85;77.79;99005.03;5074728;28;20025;-78
2022/04/24 08:43:45;;;;;;;8.10;4.75;;;;;;;9.65;77.45;99001.53;5056353;28;20017;-78
2022/04/24 08:46:10;;;;;;;6.57;4.55;;;;;;;9.93;78.98;99010.00;5056891;28;20050;-78
2022/04/24 08:48:37;;;;;;;6.53;4.40;;;;;;;10.35;79.40;99005.31;5076894;28;20031;-79
2022/04/24 08:51:05;;;;;;;6.75;4.20;;;;;;;10.22;75.73;99004.19;5074741;28;20028;-79
2022/04/24 08:53:33;;;;;;;8.50;4.97;;;;;;;10.26;74.77;99011.09;5057230;28;20405;-78
2022/04/24 08:55:58;;;;;;;7.22;4.57;;;;;;;10.23;74.19;99008.59;5074745;28;20016;-78
2022/04/24 08:58:24;;;;;;;9.05;4.70;;;;;;;10.21;75.99;99005.13;5075329;28;20393;-80
2022/04/24 09:00:49;;;;;;;6.90;4.53;;;;;;;10.22;74.05;99004.19;5075975;28;20020;-79
2022/04/24 09:03:15;;;;;;;10.07;4.95;;;;;;;10.30;75.54;99001.16;5075120;28;20111;-79
2022/04/24 09:05:40;;;;;;;7.45;4.35;;;;;;;10.49;73.90;99004.63;5075013;28;20028;-77
2022/04/24 09:08:12;;;;;;;13.38;4.72;;;;;;;10.71;76.68;99000.91;5075254;28;20028;-80
2022/04/24 09:10:55;;;;;;;9.15;4.43;;;;;;;10.71;75.22;99005.38;5075688;28;20047;-78
2022/04/24 09:16:35;;;;;;;7.43;4.43;;;;;;;11.39;72.58;98997.41;5073604;28;20028;-78
2022/04/24 09:19:01;;;;;;;7.45;4.75;;;;;;;11.50;71.56;99003.00;5073898;28;20077;-77
2022/04/24 09:21:26;;;;;;;8.70;4.32;;;;;;;12.01;72.89;99002.97;5055491;28;20111;-77
2022/04/24 09:23:52;;;;;;;4.70;3.53;;;;;;;12.39;72.00;98997.25;5074637;28;20036;-79
2022/04/24 09:26:17;;;;;;;10.77;4.78;;;;;;;12.55;71.40;98998.16;5056509;28;20033;-78
2022/04/24 09:28:43;;;;;;;7.93;4.88;;;;;;;12.55;67.34;98999.00;5075216;28;20095;-79
2022/04/24 09:31:09;;;;;;;7.88;4.32;;;;;;;12.67;66.46;99008.13;5056947;28;20108;-77
2022/04/24 09:33:43;;;;;;;6.22;4.38;;;;;;;12.69;66.59;99000.00;5073875;28;20510;-78
2022/04/24 09:36:11;;;;;;;7.30;4.78;;;;;;;13.21;69.96;99000.47;5073374;28;20037;-78
2022/04/24 09:38:44;;;;;;;8.57;4.25;;;;;;;13.38;65.45;99006.59;5073285;28;20078;-78
2022/04/24 09:41:17;;;;;;;8.23;4.10;;;;;;;13.51;64.60;98996.81;5073617;28;20386;-78
2022/04/24 09:43:44;;;;;;;5.75;4.22;;;;;;;13.57;63.07;99010.81;5073464;28;20028;-79
2022/04/24 09:46:09;;;;;;;8.02;4.10;;;;;;;13.65;62.13;99000.47;5055473;28;20032;-79
2022/04/24 09:48:35;;;;;;;8.80;4.80;;;;;;;13.89;64.99;99005.22;5055310;28;20549;-79
2022/04/24 09:51:00;;;;;;;8.10;4.65;;;;;;;13.89;63.54;99010.56;5055654;28;20054;-79
2022/04/24 09:53:28;;;;;;;10.02;4.95;;;;;;;14.08;60.21;99014.75;5056024;28;20393;-79
2022/04/24 09:55:55;;;;;;;5.75;4.35;;;;;;;13.61;62.05;99012.34;5076505;28;20020;-79
2022/04/24 09:58:23;;;;;;;6.97;4.20;;;;;;;14.07;62.17;99010.38;5076978;28;20029;-79
2022/04/24 10:00:51;;;;;;;7.22;4.50;;;;;;;13.91;60.78;99014.03;5058605;28;20017;-80
2022/04/24 10:03:19;;;;;;;8.68;4.82;;;;;;;13.89;61.19;99023.16;5077624;28;20031;-80
2022/04/24 10:05:47;;;;;;;8.23;5.15;;;;;;;14.18;59.62;99021.25;5077420;28;20027;-80
2022/04/24 10:08:14;;;;;;;6.72;4.38;;;;;;;14.34;60.84;99019.38;5075294;28;20493;-79
2022/04/24 10:10:39;;;;;;;7.70;4.70;;;;;;;14.55;58.67;99026.94;5073152;28;20493;-79
2022/04/24 10:13:07;;;;;;;6.68;4.60;;;;;;;14.81;61.76;99021.66;5072795;28;20032;-79
2022/04/24 10:15:35;;;;;;;6.45;4.03;;;;;;;15.22;60.48;99022.47;5072736;28;20104;-79
2022/04/24 10:18:30;;;;;;;7.75;4.68;;;;;;;15.37;59.10;99015.13;5073094;28;20051;-80
2022/04/24 10:21:33;;;;;;;7.30;4.63;;;;;;;15.45;58.27;99030.75;5073238;28;20385;-79
2022/04/24 10:24:12;;;;;;;6.97;4.93;;;;;;;15.25;56.41;99029.47;5054943;28;20058;-80
2022/04/24 10:26:38;;;;;;;8.55;4.65;;;;;;;14.97;56.67;99032.25;5055763;28;20063;-77
2022/04/24 10:29:12;;;;;;;7.43;4.72;;;;;;;15.52;58.79;99025.75;5073856;28;20103;-78
2022/04/24 10:31:46;;;;;;;7.25;4.68;;;;;;;16.05;58.28;99023.88;5058543;28;20025;-79
2022/04/24 10:34:17;;;;;;;5.93;3.78;;;;;;;16.25;58.81;99016.13;5076296;28;20048;-79
2022/04/24 10:36:54;;;;;;;7.20;4.10;;;;;;;15.86;56.03;99022.47;5078450;28;20528;-79
2022/04/24 10:39:22;;;;;;;7.18;4.70;;;;;;;16.06;56.40;99012.09;5076520;28;20107;-79
2022/04/24 10:41:58;;;;;;;6.72;4.53;;;;;;;15.45;54.44;99019.97;5079698;28;20020;-79
2022/04/24 10:44:24;;;;;;;5.93;4.35;;;;;;;15.78;55.56;99014.97;5080789;28;20025;-79
2022/04/24 10:46:51;;;;;;;8.80;4.57;;;;;;;16.02;56.56;99010.59;5077611;28;20024;-79
2022/04/24 10:49:18;;;;;;;5.97;4.03;;;;;;;16.22;53.29;99014.53;5058350;28;20024;-79
2022/04/24 10:51:58;;;;;;;8.88;4.35;;;;;;;16.12;52.93;99006.28;5058254;28;20025;-79
2022/04/24 10:54:38;;;;;;;8.35;4.85;;;;;;;16.88;55.10;99016.88;5058275;28;20075;-79
2022/04/24 10:57:16;;;;;;;7.13;4.78;;;;;;;16.22;50.70;99005.59;5076198;28;20020;-79
2022/04/24 10:59:48;;;;;;;8.05;4.90;;;;;;;16.51;52.41;98999.84;5058119;28;20047;-78
2022/04/24 11:02:19;;;;;;;5.70;4.65;;;;;;;16.53;52.33;99000.59;5076630;28;20035;-79
2022/04/24 11:04:44;;;;;;;6.55;4.35;;;;;;;16.33;51.22;99011.03;5058309;28;20016;-79
2022/04/24 11:07:19;;;;;;;6.07;4.35;;;;;;;17.09;55.78;99015.19;5078489;28;20074;-79
2022/04/24 11:09:44;;;;;;;5.78;4.28;;;;;;;16.92;52.44;99002.19;5063216;28;20020;-79
2022/04/24 11:12:11;;;;;;;6.78;4.20;;;;;;;17.05;55.85;99002.94;5078547;28;20477;-79
2022/04/24 11:14:37;;;;;;;5.97;4.20;;;;;;;17.52;53.44;98996.59;5079268;28;20024;-79
2022/04/24 11:17:05;;;;;;;7.00;4.43;;;;;;;17.30;52.70;98990.25;5078995;28;20020;-79
2022/04/24 11:19:37;;;;;;;8.45;5.13;;;;;;;16.69;50.10;98996.72;5061224;28;20048;-79
2022/04/24 11:22:06;;;;;;;6.32;4.60;;;;;;;16.92;51.00;99003.03;5079681;28;20024;-79
2022/04/24 11:24:35;;;;;;;7.10;4.50;;;;;;;16.60;50.92;98993.75;5075703;28;20021;-79
2022/04/24 11:27:03;;;;;;;13.52;5.03;;;;;;;17.01;50.21;98985.28;5075376;28;20043;-78
2022/04/24 11:29:28;;;;;;;6.22;4.25;;;;;;;17.37;52.28;98978.97;5057537;28;20025;-79
2022/04/24 11:31:54;;;;;;;8.20;4.30;;;;;;;17.72;52.26;98983.38;5058157;28;20020;-78
2022/04/24 11:34:22;;;;;;;7.65;4.55;;;;;;;17.22;49.14;98987.28;5076483;28;20500;-79
2022/04/24 11:36:48;;;;;;;6.38;4.05;;;;;;;17.73;49.33;98978.84;5057994;28;20032;-79
2022/04/24 11:39:14;;;;;;;6.55;3.72;;;;;;;17.62;52.06;98977.00;5075861;28;20017;-79
2022/04/24 11:41:43;;;;;;;8.73;4.90;;;;;;;17.89;49.61;98975.72;5057944;28;20055;-80